OEHLOBBI

Guest
Details From OEHL - Hail
To OBBI - Bahrain Intl
Flight Number -
Tags Generated
Created
Modified
Stats Distance 484 nm / 897 km
Max Altitude 0 ft / 0 m
Waypoints 3
Social Downloads 1
Likes 0
Share VATSIM

Download

Looking for another format? Having issues loading an existing format? Contact us
Advertisement - Login to hide

Notes

Generated

Route

OEHL R2847 OBBI

ID Type Via Altitude Latitude Longitude Leg Dist Tot Dist Heading (true) Name
O OEHL APT - 0 ft / 0 m 27.45467˚ 41.68750˚ - 0 nm - -
R2847 FIX - 0 ft / 0 m 26.27891˚ 50.61960˚ 483 nm 483 nm 96° / 100° -
O OBBI APT - 0 ft / 0 m 26.27100˚ 50.62993˚ 0 nm 484 nm 131° / 131° -

Altitude Profile

Advertisement - Login to hide

Weather


0- 5 10 15 20 25 30 35+ Temperature / ° C

Clouds and Precipitation
Forecast for 2017-12-17 00:00 UTC. Updated 2 hours ago

Ground ~20,000 ft ~40,000 ft Winds

OEHL

Details ICAO OEHL (HAS)
Name HAIL
Region Saudi Arabia
Timezone Asia/Riyadh (UTC+3.0)
Stats Elevation 3,331 ft / 1,015 m (AMSL)
Location 27.437917° 41.686292°
Runways 1
Magnetic Variation 3.906° E

METAR

OEHL 162100Z 16002KT CAVOK 05/M03 Q1025

Decode

TAF

Not found

Departure Runways

ID Width Length Bearing (true) Bearing (mag) Surface Threshold Offset Overrun Length
18 148 ft / 45 m 12,250 ft / 3,734 m 183.66° 179.75° Asphalt 0 ft / 0 m 1,343 ft / 409 m
36 148 ft / 45 m 12,250 ft / 3,734 m 3.66° 359.75° Asphalt 1,164 ft / 355 m 0 ft / 0 m

OBBI

Details ICAO OBBI (BAH)
Name BAHRAIN INTL
Region Bahrain
Timezone Asia/Bahrain (UTC+3.0)
Stats Elevation 6 ft / 2 m (AMSL)
Location 26.267837° 50.637095°
Runways 2
Magnetic Variation 2.762° E

METAR

OBBI 162100Z 31004KT CAVOK 16/11 Q1020 NOSIG

Decode

TAF

TAF OBBI 161700Z 1618/1800 32010KT CAVOK PROB30 TEMPO 1701/1705 5000 HZ

Decode

Destination Runways

ID Width Length Bearing (true) Bearing (mag) Surface Threshold Offset Overrun Length
12L 197 ft / 60 m 12,893 ft / 3,930 m 122.74° 119.98° Asphalt 1,000 ft / 305 m 0 ft / 0 m
12R 148 ft / 45 m 8,303 ft / 2,531 m 122.76° 120.00° Asphalt 1,000 ft / 305 m 0 ft / 0 m
30L 148 ft / 45 m 8,303 ft / 2,531 m 302.77° 300.01° Asphalt 395 ft / 120 m 0 ft / 0 m
30R 197 ft / 60 m 12,893 ft / 3,930 m 302.75° 299.99° Asphalt 1,000 ft / 305 m 0 ft / 0 m

Approach Navaids

Runway Type Ident Frequency Range Bearing (true) Bearing (mag) Slope Elevation
12L Localiser IBIB 111.50 MHz 18 nm / 33 km 122.74° 119.98° - 6 ft / 2 m (AMSL)
12L Glidescope IBIB 111.50 MHz 10 nm / 19 km 122.75° 119.98° 3.00° 6 ft / 2 m (AMSL)
12L DME IBIB 111.50 MHz 18 nm / 33 km - - - 42 ft / 13 m (AMSL)
30R Localiser IBIA 110.30 MHz 18 nm / 33 km 302.77° 300.01° - 6 ft / 2 m (AMSL)
30R Glidescope IBIA 110.30 MHz 10 nm / 19 km 302.75° 299.98° 3.00° 6 ft / 2 m (AMSL)
30R DME IBIA 110.30 MHz 18 nm / 33 km - - - 42 ft / 13 m (AMSL)